Terminal Aerodrome Forecast
Issued by NWS

Home | Current Version | Previous Version | Text Only | Print | Product List | Glossary On
Versions: 1 2 3 4 5 6 7 8 9 10 11 12 13 14 15 16 17
701
FTUS42 KGSP 281504 AAB
TAFAND
TAF AMD
KAND 281504Z 2815/0112 VRB03KT P6SM BKN035
     FM281900 21007KT P6SM BKN040
     FM010000 00000KT P6SM BKN090
     FM011000 20006KT P6SM SCT010 BKN250=

USA.gov is the U.S. government's official web portal to all federal, state and local government web resources and services.